createdAt,value
2018-02-09T00:17:36.310Z,5.26
2018-02-09T01:02:37.170Z,5.17
2018-02-09T02:17:39.192Z,5.47
2018-02-09T02:32:38.515Z,5.57
2018-02-09T04:02:36.801Z,5.64
2018-02-09T04:47:40.123Z,5.72
2018-02-09T05:17:34.633Z,5.62
2018-02-09T06:17:34.485Z,5.54
2018-02-09T06:47:34.353Z,7.88
2018-02-09T07:02:34.324Z,7.54
2018-02-09T07:17:34.218Z,8.03
2018-02-09T07:32:35.300Z,9.58
2018-02-09T07:47:34.200Z,10.47
2018-02-09T08:02:34.132Z,9.92
2018-02-09T08:17:34.176Z,9.52
2018-02-09T08:32:34.107Z,9.61
2018-02-09T08:47:35.900Z,10.96
2018-02-09T09:02:37.050Z,13.46
2018-02-09T09:17:38.039Z,15.27
2018-02-09T09:32:35.188Z,15.43
2018-02-09T09:47:36.659Z,15.35
2018-02-09T10:02:40.601Z,14.85
2018-02-09T10:17:34.688Z,14.92
2018-02-09T10:32:36.622Z,14.90
2018-02-09T10:47:34.593Z,14.68
2018-02-09T11:02:34.769Z,13.66
2018-02-09T11:17:35.537Z,12.92
2018-02-09T11:32:34.446Z,13.80
2018-02-09T11:47:35.705Z,14.45
2018-02-09T12:02:34.628Z,14.77
2018-02-09T12:17:34.385Z,14.64
2018-02-09T12:32:34.398Z,13.74
2018-02-09T12:47:34.361Z,12.87
2018-02-09T13:02:34.534Z,12.13
2018-02-09T13:17:34.214Z,11.85
2018-02-09T13:32:47.004Z,11.65
2018-02-09T13:47:36.130Z,11.34
2018-02-09T14:02:35.459Z,10.92
2018-02-09T14:17:35.209Z,10.37
2018-02-09T14:32:37.670Z,9.92
2018-02-09T14:47:37.991Z,9.56
2018-02-09T15:02:35.283Z,9.15
2018-02-09T15:17:35.227Z,8.66
2018-02-09T15:32:35.229Z,8.29
2018-02-09T15:47:35.138Z,8.03
2018-02-09T16:02:35.196Z,7.76
2018-02-09T16:17:36.086Z,7.53
2018-02-09T16:32:35.085Z,7.36
2018-02-09T16:47:34.577Z,7.25
2018-02-09T17:02:35.108Z,7.11
2018-02-09T17:17:34.984Z,6.96
2018-02-09T17:47:34.658Z,6.58
2018-02-09T20:17:36.674Z,5.17
2018-02-09T21:02:36.946Z,4.70
2018-02-09T21:32:45.818Z,4.34
2018-02-09T21:47:34.926Z,4.31
2018-02-09T22:02:37.347Z,4.22
2018-02-09T22:17:35.352Z,4.08
2018-02-09T22:32:35.442Z,3.95
2018-02-09T22:47:37.443Z,3.97
2018-02-09T23:02:39.464Z,4.05
2018-02-09T23:17:35.224Z,4.06
2018-02-09T23:32:35.181Z,4.09
2018-02-09T23:47:35.220Z,4.13
